createdAt,value
2018-03-31T00:00:29.920Z,95.69
2018-03-31T00:01:30.163Z,96.17
2018-03-31T00:02:30.145Z,96.17
2018-03-31T00:03:29.879Z,95.79
2018-03-31T00:04:30.119Z,95.98
2018-03-31T00:05:30.105Z,96.17
2018-03-31T00:06:30.092Z,96.64
2018-03-31T00:07:30.079Z,96.83
2018-03-31T00:08:30.067Z,97.02
2018-03-31T00:09:30.053Z,96.55
2018-03-31T00:10:29.785Z,96.83
2018-03-31T00:11:30.082Z,96.83
2018-03-31T00:12:30.013Z,96.92
2018-03-31T00:13:30.050Z,96.92
2018-03-31T00:14:29.984Z,96.83
2018-03-31T00:15:29.719Z,96.92
2018-03-31T00:16:29.960Z,97.02
2018-03-31T00:17:29.944Z,97.21
2018-03-31T00:18:29.938Z,96.83
2018-03-31T00:19:29.917Z,97.21
2018-03-31T00:20:29.909Z,97.49
2018-03-31T00:21:29.892Z,97.21
2018-03-31T00:22:29.625Z,97.35
2018-03-31T00:23:29.864Z,97.59
2018-03-31T00:24:29.853Z,97.59
2018-03-31T00:25:29.840Z,97.92
2018-03-31T00:26:29.822Z,97.4
2018-03-31T00:27:29.809Z,97.59
2018-03-31T00:28:29.796Z,97.63
2018-03-31T00:29:29.783Z,97.4
2018-03-31T00:30:29.775Z,97.54
2018-03-31T00:31:29.754Z,97.68
2018-03-31T00:32:29.488Z,97.54
2018-03-31T00:33:29.738Z,97.44
2018-03-31T00:34:29.461Z,97.54
2018-03-31T00:35:29.702Z,97.54
2018-03-31T00:36:29.728Z,97.54
2018-03-31T00:37:29.673Z,97.44
2018-03-31T00:38:29.659Z,97.44
2018-03-31T00:39:29.651Z,97.44
2018-03-31T00:40:29.633Z,97.54
2018-03-31T00:41:29.619Z,97.63
2018-03-31T00:42:29.352Z,97.73
2018-03-31T00:43:29.592Z,97.49
2018-03-31T00:44:29.591Z,97.92
2018-03-31T00:45:29.312Z,97.63
2018-03-31T00:46:29.551Z,97.54
2018-03-31T00:47:29.543Z,97.73
2018-03-31T00:48:29.533Z,97.44
2018-03-31T00:49:29.511Z,97.63
2018-03-31T00:50:29.497Z,97.82
2018-03-31T00:51:29.481Z,97.63
2018-03-31T00:52:29.471Z,97.92
2018-03-31T00:53:29.455Z,97.35
2018-03-31T00:54:29.442Z,97.73
2018-03-31T00:55:29.532Z,97.44
2018-03-31T00:56:29.418Z,97.54
2018-03-31T00:57:29.147Z,97.54
2018-03-31T00:58:29.385Z,97.35
2018-03-31T00:59:29.120Z,97.54
2018-03-31T01:00:29.359Z,97.44
2018-03-31T01:01:29.355Z,97.92
2018-03-31T01:02:29.335Z,97.73
2018-03-31T01:03:29.318Z,97.63
2018-03-31T01:04:29.304Z,97.16
2018-03-31T01:05:29.306Z,97.73
2018-03-31T01:06:29.024Z,97.92
2018-03-31T01:07:29.264Z,97.44
2018-03-31T01:08:29.254Z,97.73
2018-03-31T01:09:28.984Z,97.54
2018-03-31T01:10:28.969Z,97.44
2018-03-31T01:11:29.208Z,97.54
2018-03-31T01:12:29.197Z,97.92
2018-03-31T01:13:29.181Z,98.11
2018-03-31T01:14:29.167Z,98.11
2018-03-31T01:15:29.151Z,98.2
2018-03-31T01:16:29.149Z,98.11
2018-03-31T01:17:29.130Z,98.11
2018-03-31T01:18:29.112Z,98.49
2018-03-31T01:19:29.099Z,97.92
2018-03-31T01:20:29.090Z,98.3
2018-03-31T01:21:29.069Z,98.49
2018-03-31T01:22:29.054Z,98.3
2018-03-31T01:23:28.789Z,98.49
2018-03-31T01:24:29.030Z,98.3
2018-03-31T01:25:29.012Z,98.39
2018-03-31T01:26:28.999Z,97.92
2018-03-31T01:27:28.993Z,98.3
2018-03-31T01:28:28.973Z,98.3
2018-03-31T01:29:28.705Z,98.11
2018-03-31T01:30:28.946Z,98.3
2018-03-31T01:31:28.964Z,98.3
2018-03-31T01:32:28.929Z,98.49
2018-03-31T01:33:28.903Z,98.39
2018-03-31T01:34:28.637Z,98.49
2018-03-31T01:35:28.874Z,98.39
2018-03-31T01:36:28.866Z,98.58
2018-03-31T01:37:28.846Z,98.86
2018-03-31T01:38:28.836Z,98.68
2018-03-31T01:39:28.572Z,98.3
2018-03-31T01:40:28.804Z,98.49
2018-03-31T01:41:28.795Z,98.58
2018-03-31T01:42:28.779Z,98.49
2018-03-31T01:43:28.766Z,98.77
2018-03-31T01:44:28.496Z,98.86
2018-03-31T01:45:28.734Z,98.77
2018-03-31T01:46:28.722Z,98.3
2018-03-31T01:47:28.723Z,98.68
2018-03-31T01:48:28.692Z,98.77
2018-03-31T01:49:28.678Z,98.82
2018-03-31T01:50:28.664Z,98.82
2018-03-31T01:51:28.651Z,98.86
2018-03-31T01:52:28.635Z,98.96
2018-03-31T01:53:28.622Z,98.96
2018-03-31T01:54:28.607Z,98.39
2018-03-31T01:55:28.592Z,98.77
2018-03-31T01:56:28.578Z,99.01
2018-03-31T01:57:28.572Z,98.86
2018-03-31T01:58:28.552Z,98.63
2018-03-31T01:59:28.537Z,98.82
2018-03-31T02:00:28.523Z,98.53
2018-03-31T02:01:28.517Z,98.44
2018-03-31T02:02:28.241Z,99.01
2018-03-31T02:03:28.480Z,98.91
2018-03-31T02:04:28.213Z,98.96
2018-03-31T02:05:28.451Z,99.1
2018-03-31T02:06:28.504Z,99.1
2018-03-31T02:07:28.423Z,98.72
2018-03-31T02:08:28.160Z,99.1
2018-03-31T02:09:28.401Z,98.82
2018-03-31T02:10:28.383Z,98.44
2018-03-31T02:11:28.366Z,98.53
2018-03-31T02:12:28.352Z,98.63
2018-03-31T02:13:28.095Z,98.91
2018-03-31T02:14:28.070Z,98.44
2018-03-31T02:15:28.312Z,98.82
2018-03-31T02:16:28.294Z,98.44
2018-03-31T02:17:28.281Z,98.82
2018-03-31T02:18:28.280Z,98.91
2018-03-31T02:19:27.999Z,99.01
2018-03-31T02:20:27.985Z,98.82
2018-03-31T02:21:28.228Z,99.1
2018-03-31T02:22:28.208Z,98.82
2018-03-31T02:23:28.208Z,98.82
2018-03-31T02:24:27.926Z,98.44
2018-03-31T02:25:28.171Z,98.82
2018-03-31T02:26:28.152Z,98.91
2018-03-31T02:27:28.139Z,98.82
2018-03-31T02:28:28.129Z,99.1
2018-03-31T02:29:27.856Z,98.72
2018-03-31T02:30:28.103Z,99.38
2018-03-31T02:31:28.082Z,99.38
2018-03-31T02:32:28.070Z,99.19
2018-03-31T02:33:28.125Z,99.57
2018-03-31T02:34:27.788Z,99.48
2018-03-31T02:35:28.028Z,99.1
2018-03-31T02:36:28.009Z,99.29
2018-03-31T02:37:28.001Z,99.38
2018-03-31T02:38:27.987Z,99.57
2018-03-31T02:39:27.714Z,99.38
2018-03-31T02:40:27.959Z,99.38
2018-03-31T02:41:27.937Z,99.1
2018-03-31T02:42:27.924Z,99.38
2018-03-31T02:43:27.914Z,99.19
2018-03-31T02:44:27.945Z,99.1
2018-03-31T02:45:27.883Z,99.38
2018-03-31T02:46:27.868Z,99.38
2018-03-31T02:47:27.851Z,99.29
2018-03-31T02:48:27.836Z,99.38
2018-03-31T02:49:27.821Z,99.29
2018-03-31T02:50:27.806Z,98.72
2018-03-31T02:51:27.794Z,98.63
2018-03-31T02:52:27.786Z,99.38
2018-03-31T02:53:27.768Z,99.29
2018-03-31T02:54:27.799Z,99.1
2018-03-31T02:55:27.748Z,99.38
2018-03-31T02:56:27.724Z,99.1
2018-03-31T02:57:27.722Z,99.38
2018-03-31T02:58:27.692Z,99.19
2018-03-31T02:59:27.685Z,99.1
2018-03-31T03:00:27.663Z,99.29
2018-03-31T03:01:27.394Z,99.38
2018-03-31T03:02:27.643Z,99.19
2018-03-31T03:03:27.624Z,99.76
2018-03-31T03:04:27.606Z,99.85
2018-03-31T03:05:27.597Z,99.66
2018-03-31T03:06:27.580Z,99.66
2018-03-31T03:07:27.564Z,99.85
2018-03-31T03:08:27.552Z,99.66
2018-03-31T03:09:27.281Z,99.95
2018-03-31T03:10:27.521Z,99.29
2018-03-31T03:11:27.507Z,99.76
2018-03-31T03:12:27.490Z,99.95
2018-03-31T03:13:27.475Z,99.85
2018-03-31T03:14:27.464Z,99.95
2018-03-31T03:15:27.447Z,99.76
2018-03-31T03:16:27.432Z,99.57
2018-03-31T03:17:27.417Z,99.76
2018-03-31T03:18:27.150Z,99.99
2018-03-31T03:19:27.388Z,99.57
2018-03-31T03:20:27.374Z,99.57
2018-03-31T03:21:27.106Z,99.48
2018-03-31T03:22:27.349Z,99.38
2018-03-31T03:23:27.330Z,99.57
2018-03-31T03:24:27.062Z,99.66
2018-03-31T03:25:27.301Z,99.76
2018-03-31T03:26:27.289Z,99.85
2018-03-31T03:27:27.270Z,99.66
2018-03-31T03:28:27.265Z,99.76
2018-03-31T03:29:27.241Z,99.76
2018-03-31T03:30:27.238Z,99.85
2018-03-31T03:31:27.217Z,99.66
2018-03-31T03:32:27.198Z,99.85
2018-03-31T03:33:26.932Z,99.38
2018-03-31T03:34:27.177Z,99.1
2018-03-31T03:35:27.157Z,99.38
2018-03-31T03:36:27.141Z,99.29
2018-03-31T03:37:27.138Z,99.01
2018-03-31T03:38:27.111Z,99.38
2018-03-31T03:39:26.846Z,98.63
2018-03-31T03:40:27.084Z,98.91
2018-03-31T03:41:27.067Z,99.38
2018-03-31T03:42:26.800Z,99.1
2018-03-31T03:43:27.040Z,99.1
2018-03-31T03:44:26.773Z,98.91
2018-03-31T03:45:27.010Z,98.63
2018-03-31T03:46:26.742Z,98.15
2018-03-31T03:47:26.983Z,98.15
2018-03-31T03:48:26.971Z,98.44
2018-03-31T03:49:26.702Z,98.44
2018-03-31T03:50:26.940Z,98.25
2018-03-31T03:51:26.924Z,97.87
2018-03-31T03:52:26.656Z,97.96
2018-03-31T03:53:26.895Z,97.87
2018-03-31T03:54:26.628Z,97.58
2018-03-31T03:55:26.614Z,97.58
2018-03-31T03:56:26.908Z,97.49
2018-03-31T03:57:26.585Z,97.3
2018-03-31T03:58:26.823Z,97.02
2018-03-31T03:59:26.558Z,97.11
2018-03-31T04:00:26.794Z,96.97
2018-03-31T04:01:26.785Z,97.11
2018-03-31T04:02:26.767Z,96.78
2018-03-31T04:03:26.752Z,97.06
2018-03-31T04:04:26.487Z,97.44
2018-03-31T04:05:26.471Z,97.44
2018-03-31T04:06:26.711Z,97.35
2018-03-31T04:07:26.710Z,97.35
2018-03-31T04:08:26.681Z,97.35
2018-03-31T04:09:26.672Z,97.06
2018-03-31T04:10:26.652Z,96.88
2018-03-31T04:11:26.638Z,97.35
2018-03-31T04:12:26.625Z,96.97
2018-03-31T04:13:26.611Z,96.97
2018-03-31T04:14:26.596Z,97.06
2018-03-31T04:15:26.586Z,96.4
2018-03-31T04:16:26.568Z,96.78
2018-03-31T04:17:26.555Z,96.02
2018-03-31T04:18:26.541Z,96.21
2018-03-31T04:19:26.525Z,96.4
2018-03-31T04:20:26.512Z,96.4
2018-03-31T04:21:26.497Z,96.21
2018-03-31T04:22:26.483Z,96.4
2018-03-31T04:23:26.470Z,96.4
2018-03-31T04:24:26.458Z,96.4
2018-03-31T04:25:26.440Z,96.59
2018-03-31T04:26:26.430Z,96.02
2018-03-31T04:27:26.414Z,96.12
2018-03-31T04:28:26.147Z,96.12
2018-03-31T04:29:26.386Z,96.02
2018-03-31T04:30:26.372Z,95.93
2018-03-31T04:31:26.366Z,96.31
2018-03-31T04:32:26.092Z,96.12
2018-03-31T04:33:26.330Z,96.31
2018-03-31T04:34:26.315Z,95.93
2018-03-31T04:35:26.303Z,95.93
2018-03-31T04:36:26.292Z,95.64
2018-03-31T04:37:26.279Z,96.02
2018-03-31T04:38:26.260Z,95.45
2018-03-31T04:39:25.993Z,96.12
2018-03-31T04:40:26.237Z,95.93
2018-03-31T04:41:26.219Z,96.12
2018-03-31T04:42:26.207Z,95.74
2018-03-31T04:43:26.190Z,96.02
2018-03-31T04:44:26.181Z,95.83
2018-03-31T04:45:26.163Z,95.74
2018-03-31T04:46:26.149Z,95.93
2018-03-31T04:47:26.134Z,95.45
2018-03-31T04:48:26.214Z,95.36
2018-03-31T04:49:26.106Z,95.55
2018-03-31T04:50:26.094Z,95.26
2018-03-31T04:51:26.096Z,95.55
2018-03-31T04:52:26.066Z,95.64
2018-03-31T04:53:26.053Z,95.93
2018-03-31T04:54:26.037Z,95.45
2018-03-31T04:55:26.024Z,95.93
2018-03-31T04:56:26.011Z,95.93
2018-03-31T04:57:25.997Z,95.93
2018-03-31T04:58:25.982Z,95.93
2018-03-31T04:59:25.715Z,96.12
2018-03-31T05:00:25.957Z,95.74
2018-03-31T05:01:25.939Z,96.12
2018-03-31T05:02:25.673Z,95.93
2018-03-31T05:03:25.913Z,96.12
2018-03-31T05:04:25.645Z,95.45
2018-03-31T05:05:25.889Z,95.64
2018-03-31T05:06:25.873Z,95.74
2018-03-31T05:07:25.604Z,95.93
2018-03-31T05:08:25.849Z,95.64
2018-03-31T05:09:25.833Z,96.02
2018-03-31T05:10:25.819Z,95.93
2018-03-31T05:11:25.806Z,95.83
2018-03-31T05:12:25.788Z,95.64
2018-03-31T05:13:25.780Z,95.74
2018-03-31T05:14:25.783Z,95.93
2018-03-31T05:15:25.746Z,95.64
2018-03-31T05:16:25.732Z,95.74
2018-03-31T05:17:25.719Z,96.02
2018-03-31T05:18:25.732Z,96.12
2018-03-31T05:19:25.692Z,95.26
2018-03-31T05:20:25.675Z,95.26
2018-03-31T05:21:25.662Z,95.36
2018-03-31T05:22:25.648Z,95.26
2018-03-31T05:23:25.640Z,95.55
2018-03-31T05:24:25.652Z,95.07
2018-03-31T05:25:25.607Z,95.36
2018-03-31T05:26:25.662Z,95.26
2018-03-31T05:27:25.588Z,95.45
2018-03-31T05:28:25.566Z,94.7
2018-03-31T05:29:25.557Z,94.32
2018-03-31T05:30:25.537Z,94.84
2018-03-31T05:31:25.525Z,94.51
2018-03-31T05:32:25.511Z,94.74
2018-03-31T05:33:25.501Z,94.93
2018-03-31T05:34:25.482Z,94.37
2018-03-31T05:35:25.477Z,94.27
2018-03-31T05:36:25.457Z,94.74
2018-03-31T05:37:25.444Z,94.08
2018-03-31T05:38:25.431Z,94.18
2018-03-31T05:39:25.422Z,94.27
2018-03-31T05:40:25.405Z,94.46
2018-03-31T05:41:25.393Z,93.99
2018-03-31T05:42:25.379Z,93.89
2018-03-31T05:43:25.361Z,93.89
2018-03-31T05:44:25.348Z,94.37
2018-03-31T05:45:25.335Z,92.94
2018-03-31T05:46:25.068Z,93.42
2018-03-31T05:47:25.308Z,93.7
2018-03-31T05:48:25.294Z,93.13
2018-03-31T05:49:25.281Z,93.04
2018-03-31T05:50:25.270Z,93.51
2018-03-31T05:51:25.254Z,93.61
2018-03-31T05:52:25.241Z,93.42
2018-03-31T05:53:25.233Z,93.32
2018-03-31T05:54:25.213Z,94.08
2018-03-31T05:55:25.200Z,94.08
2018-03-31T05:56:25.186Z,93.8
2018-03-31T05:57:25.175Z,94.08
2018-03-31T05:58:25.161Z,93.89
2018-03-31T05:59:24.904Z,93.99
2018-03-31T06:00:25.133Z,94.08
2018-03-31T06:01:25.122Z,93.42
2018-03-31T06:02:25.111Z,93.7
2018-03-31T06:03:25.100Z,93.8
2018-03-31T06:04:24.828Z,93.51
2018-03-31T06:05:25.068Z,94.08
2018-03-31T06:06:25.055Z,93.89
2018-03-31T06:07:25.042Z,94.37
2018-03-31T06:08:25.033Z,94.18
2018-03-31T06:09:25.031Z,94.37
2018-03-31T06:10:25.003Z,94.65
2018-03-31T06:11:24.988Z,95.5
2018-03-31T06:12:24.976Z,95.22
2018-03-31T06:13:24.963Z,95.22
2018-03-31T06:14:24.951Z,95.31
2018-03-31T06:15:24.942Z,95.31
2018-03-31T06:16:24.925Z,95.22
2018-03-31T06:17:24.911Z,95.5
2018-03-31T06:18:24.900Z,95.31
2018-03-31T06:19:24.889Z,95.41
2018-03-31T06:20:24.618Z,95.22
2018-03-31T06:21:24.860Z,94.56
2018-03-31T06:22:24.845Z,94.37
2018-03-31T06:23:24.831Z,94.56
2018-03-31T06:24:24.820Z,93.89
2018-03-31T06:25:24.805Z,94.08
2018-03-31T06:26:24.792Z,94.37
2018-03-31T06:27:24.778Z,93.89
2018-03-31T06:28:24.776Z,93.99
2018-03-31T06:29:24.751Z,93.7
2018-03-31T06:30:24.740Z,93.51
2018-03-31T06:31:24.726Z,94.18
2018-03-31T06:32:24.713Z,94.08
2018-03-31T06:33:24.700Z,93.89
2018-03-31T06:34:24.435Z,93.65
2018-03-31T06:35:24.675Z,93.37
2018-03-31T06:36:24.666Z,92.9
2018-03-31T06:37:24.683Z,92.52
2018-03-31T06:38:24.639Z,91.95
2018-03-31T06:39:24.632Z,92.04
2018-03-31T06:40:24.610Z,92.04
2018-03-31T06:41:24.597Z,92.33
2018-03-31T06:42:24.331Z,92.04
2018-03-31T06:43:24.574Z,91.47
2018-03-31T06:44:24.566Z,91.57
2018-03-31T06:45:24.547Z,91.28
2018-03-31T06:46:24.536Z,91
2018-03-31T06:47:24.522Z,91
2018-03-31T06:48:24.509Z,90.91
2018-03-31T06:49:24.496Z,90.81
2018-03-31T06:50:24.484Z,90.91
2018-03-31T06:51:24.470Z,91.19
2018-03-31T06:52:24.460Z,91.38
2018-03-31T06:53:24.445Z,90.81
2018-03-31T06:54:24.440Z,90.81
2018-03-31T06:55:24.432Z,91.19
2018-03-31T06:56:24.409Z,91.28
2018-03-31T06:57:24.397Z,91.28
2018-03-31T06:58:24.458Z,91.38
2018-03-31T06:59:24.371Z,91.57
2018-03-31T07:00:24.106Z,91.66
2018-03-31T07:01:24.347Z,91.95
2018-03-31T07:02:24.337Z,91.95
2018-03-31T07:03:24.325Z,91.76
2018-03-31T07:04:24.314Z,91.95
2018-03-31T07:05:24.300Z,92.42
2018-03-31T07:06:24.285Z,91.95
2018-03-31T07:07:24.273Z,91.95
2018-03-31T07:08:24.261Z,91.95
2018-03-31T07:09:24.248Z,91.95
2018-03-31T07:10:23.982Z,91.85
2018-03-31T07:11:24.223Z,91.95
2018-03-31T07:12:24.217Z,92.04
2018-03-31T07:13:23.945Z,91.95
2018-03-31T07:14:24.185Z,91.47
2018-03-31T07:15:23.925Z,91.76
2018-03-31T07:16:24.160Z,91.38
2018-03-31T07:17:24.148Z,91.85
2018-03-31T07:18:24.138Z,91.76
2018-03-31T07:19:24.126Z,91.28
2018-03-31T07:20:24.112Z,91.47
2018-03-31T07:21:24.106Z,91.57
2018-03-31T07:22:24.113Z,91.47
2018-03-31T07:23:24.073Z,91
2018-03-31T07:24:24.061Z,91.42
2018-03-31T07:25:24.052Z,91.14
2018-03-31T07:26:24.043Z,90.76
2018-03-31T07:27:24.032Z,90.67
2018-03-31T07:28:24.022Z,91.05
2018-03-31T07:29:23.748Z,90.76
2018-03-31T07:30:23.989Z,90.76
2018-03-31T07:31:23.724Z,90.57
2018-03-31T07:32:23.964Z,90.38
2018-03-31T07:33:23.952Z,90.57
2018-03-31T07:34:23.946Z,90
2018-03-31T07:35:23.939Z,90.57
2018-03-31T07:36:23.664Z,89.91
2018-03-31T07:37:23.906Z,89.81
2018-03-31T07:38:23.898Z,89.81
2018-03-31T07:39:23.881Z,90
2018-03-31T07:40:23.873Z,90.1
2018-03-31T07:41:23.870Z,89.72
2018-03-31T07:42:23.847Z,89.91
2018-03-31T07:43:23.833Z,89.91
2018-03-31T07:44:23.824Z,89.76
2018-03-31T07:45:23.810Z,89.58
2018-03-31T07:46:23.799Z,88.91
2018-03-31T07:47:23.789Z,89
2018-03-31T07:48:23.780Z,88.24
2018-03-31T07:49:23.767Z,88.34
2018-03-31T07:50:23.754Z,88.91
2018-03-31T07:51:23.491Z,89.1
2018-03-31T07:52:23.733Z,89
2018-03-31T07:53:23.466Z,89
2018-03-31T07:54:23.715Z,88.91
2018-03-31T07:55:23.698Z,88.91
2018-03-31T07:56:23.688Z,89
2018-03-31T07:57:23.684Z,88.81
2018-03-31T07:58:23.410Z,88.72
2018-03-31T07:59:23.651Z,89.1
2018-03-31T08:00:23.640Z,88.15
2018-03-31T08:01:23.630Z,88.62
2018-03-31T08:02:23.365Z,88.34
2018-03-31T08:03:23.612Z,88.34
2018-03-31T08:04:23.597Z,87.43
2018-03-31T08:05:23.585Z,87.15
2018-03-31T08:06:23.573Z,87.53
2018-03-31T08:07:23.570Z,87.24
2018-03-31T08:08:23.553Z,87.34
2018-03-31T08:09:23.541Z,87.05
2018-03-31T08:10:23.531Z,86.87
2018-03-31T08:11:23.520Z,86.58
2018-03-31T08:12:23.512Z,85.72
2018-03-31T08:13:23.497Z,86.01
2018-03-31T08:14:23.488Z,86.01
2018-03-31T08:15:23.476Z,86.11
2018-03-31T08:16:23.482Z,85.68
2018-03-31T08:17:23.460Z,85.53
2018-03-31T08:18:23.446Z,85.86
2018-03-31T08:19:23.434Z,85.2
2018-03-31T08:20:23.426Z,85.39
2018-03-31T08:21:23.413Z,85.01
2018-03-31T08:22:23.404Z,84.53
2018-03-31T08:23:23.404Z,84.72
2018-03-31T08:24:23.389Z,84.16
2018-03-31T08:25:23.381Z,84.72
2018-03-31T08:26:23.362Z,84.72
2018-03-31T08:27:23.353Z,85.2
2018-03-31T08:28:23.344Z,85.2
2018-03-31T08:29:23.332Z,85.39
2018-03-31T08:30:23.097Z,85.11
2018-03-31T08:31:23.313Z,85.39
2018-03-31T08:32:23.302Z,85.68
2018-03-31T08:33:23.293Z,85.01
2018-03-31T08:34:23.281Z,85.49
2018-03-31T08:35:23.019Z,85.2
2018-03-31T08:36:23.262Z,85.3
2018-03-31T08:37:23.254Z,85.49
2018-03-31T08:38:23.242Z,85.53
2018-03-31T08:39:23.232Z,85.91
2018-03-31T08:40:23.221Z,86.77
2018-03-31T08:41:23.211Z,87.53
2018-03-31T08:42:22.947Z,87.72
2018-03-31T08:43:23.189Z,88.2
2018-03-31T08:44:23.177Z,88.48
2018-03-31T08:45:23.169Z,88.48
2018-03-31T08:46:23.164Z,88.29
2018-03-31T08:47:23.147Z,88.57
2018-03-31T08:48:23.135Z,88.76
2018-03-31T08:49:23.125Z,89.72
2018-03-31T08:50:23.113Z,90.05
2018-03-31T08:51:23.105Z,90.52
2018-03-31T08:52:23.097Z,90.9
2018-03-31T08:53:23.089Z,91.19
2018-03-31T08:54:23.082Z,91.75
2018-03-31T08:55:23.058Z,92.9
2018-03-31T08:56:23.055Z,94.13
2018-03-31T08:57:23.044Z,94.7
2018-03-31T08:58:23.031Z,95.27
2018-03-31T08:59:23.017Z,95.93
2018-03-31T09:00:23.003Z,97.26
2018-03-31T09:01:23.004Z,97.36
2018-03-31T09:02:22.979Z,97.97
2018-03-31T09:03:22.968Z,98.44
2018-03-31T09:04:22.962Z,98.3
2018-03-31T09:05:22.954Z,98.73
2018-03-31T09:06:22.933Z,98.54
2018-03-31T09:07:22.921Z,99.2
2018-03-31T09:08:22.657Z,99.01
2018-03-31T09:09:22.986Z,99.3
2018-03-31T09:10:22.885Z,99.87
2018-03-31T09:11:22.875Z,99.39
2018-03-31T09:12:22.863Z,99.77
2018-03-31T09:13:22.916Z,99.77
2018-03-31T09:14:22.589Z,99.58
2018-03-31T09:15:22.575Z,99.99
2018-03-31T09:16:22.821Z,99.99
2018-03-31T09:17:22.551Z,99.99
2018-03-31T09:18:22.807Z,99.68
2018-03-31T09:19:22.781Z,99.58
2018-03-31T09:20:22.778Z,99.87
2018-03-31T09:21:22.761Z,99.99
2018-03-31T09:22:22.745Z,99.3
2018-03-31T09:23:22.737Z,99.58
2018-03-31T09:24:22.728Z,99.39
2018-03-31T09:25:22.471Z,99.77
2018-03-31T09:26:22.701Z,99.01
2018-03-31T09:27:22.693Z,99.58
2018-03-31T09:28:22.424Z,99.01
2018-03-31T09:29:22.418Z,99.58
2018-03-31T09:30:22.658Z,99.58
2018-03-31T09:31:22.648Z,99.99
2018-03-31T09:32:22.630Z,99.68
2018-03-31T09:33:22.630Z,99.96
2018-03-31T09:34:22.614Z,99.99
2018-03-31T09:35:22.593Z,99.96
2018-03-31T09:36:22.583Z,99.99
2018-03-31T09:37:22.608Z,99.99
2018-03-31T09:38:22.559Z,99.72
2018-03-31T09:39:22.551Z,99.99
2018-03-31T09:40:22.535Z,99.53
2018-03-31T09:41:22.530Z,99.72
2018-03-31T09:42:22.514Z,99.82
2018-03-31T09:43:22.498Z,99.72
2018-03-31T09:44:22.491Z,99.82
2018-03-31T09:45:22.479Z,99.91
2018-03-31T09:46:22.467Z,99.34
2018-03-31T09:47:22.452Z,99.06
2018-03-31T09:48:22.439Z,99.25
2018-03-31T09:49:22.428Z,98.87
2018-03-31T09:50:22.416Z,98.87
2018-03-31T09:51:22.408Z,98.39
2018-03-31T09:52:22.393Z,98.58
2018-03-31T09:53:22.380Z,98.11
2018-03-31T09:54:22.367Z,98.16
2018-03-31T09:55:22.356Z,98.35
2018-03-31T09:56:22.344Z,97.97
2018-03-31T09:57:22.341Z,98.25
2018-03-31T09:58:22.319Z,98.25
2018-03-31T09:59:22.314Z,98.35
2018-03-31T10:00:22.358Z,98.44
2018-03-31T10:01:22.304Z,98.25
2018-03-31T10:02:22.277Z,98.07
2018-03-31T10:03:22.273Z,98.3
2018-03-31T10:04:22.255Z,97.92
2018-03-31T10:05:21.988Z,97.17
2018-03-31T10:06:22.230Z,97.64
2018-03-31T10:07:22.224Z,97.64
2018-03-31T10:08:22.209Z,98.3
2018-03-31T10:09:22.216Z,98.4
2018-03-31T10:10:22.191Z,97.17
2018-03-31T10:11:22.175Z,97.55
2018-03-31T10:12:22.168Z,97.64
2018-03-31T10:13:21.906Z,97.83
2018-03-31T10:14:22.142Z,97.74
2018-03-31T10:15:22.133Z,97.45
2018-03-31T10:16:22.125Z,97.45
2018-03-31T10:17:21.870Z,97.83
2018-03-31T10:18:22.100Z,97.64
2018-03-31T10:19:22.087Z,97.36
2018-03-31T10:20:22.077Z,97.12
2018-03-31T10:21:22.071Z,97.26
2018-03-31T10:22:22.059Z,97.17
2018-03-31T10:23:22.052Z,97.5
2018-03-31T10:24:21.782Z,97.41
2018-03-31T10:25:22.036Z,97.22
2018-03-31T10:26:22.013Z,96.83
2018-03-31T10:27:22.008Z,97.12
2018-03-31T10:28:21.992Z,96.93
2018-03-31T10:29:21.979Z,96.93
2018-03-31T10:30:21.971Z,96.83
2018-03-31T10:31:21.975Z,97.02
2018-03-31T10:32:21.997Z,97.12
2018-03-31T10:33:21.937Z,97.02
2018-03-31T10:34:21.674Z,97.02
2018-03-31T10:35:22.046Z,97.02
2018-03-31T10:36:21.908Z,97.02
2018-03-31T10:37:21.910Z,96.98
2018-03-31T10:38:21.883Z,97.07
2018-03-31T10:39:21.872Z,97.17
2018-03-31T10:40:21.864Z,97.07
2018-03-31T10:41:21.854Z,97.17
2018-03-31T10:42:21.843Z,96.69
2018-03-31T10:43:21.835Z,96.6
2018-03-31T10:44:21.823Z,96.41
2018-03-31T10:45:21.813Z,96.55
2018-03-31T10:46:21.820Z,96.45
2018-03-31T10:47:21.831Z,95.98
2018-03-31T10:48:21.531Z,96.08
2018-03-31T10:49:21.778Z,95.75
2018-03-31T10:50:21.767Z,95.94
2018-03-31T10:51:21.759Z,96.41
2018-03-31T10:52:21.744Z,96.6
2018-03-31T10:53:21.747Z,96.98
2018-03-31T10:54:21.728Z,96.46
2018-03-31T10:55:21.720Z,96.46
2018-03-31T10:56:21.710Z,96.26
2018-03-31T10:57:21.704Z,97.13
2018-03-31T10:58:21.693Z,96.17
2018-03-31T10:59:21.692Z,96.55
2018-03-31T11:00:21.755Z,96.26
2018-03-31T11:01:21.671Z,97.22
2018-03-31T11:02:21.663Z,96.36
2018-03-31T11:03:21.655Z,94.6
2018-03-31T11:04:21.646Z,95.6
2018-03-31T11:05:21.381Z,96.12
2018-03-31T11:06:21.630Z,95.94
2018-03-31T11:07:21.618Z,95.65
2018-03-31T11:08:21.608Z,94.32
2018-03-31T11:09:21.598Z,94.98
2018-03-31T11:10:21.592Z,96.41
2018-03-31T11:11:21.583Z,96.31
2018-03-31T11:12:21.571Z,96.12
2018-03-31T11:13:21.572Z,96.65
2018-03-31T11:14:21.551Z,96.45
2018-03-31T11:15:21.551Z,95.98
2018-03-31T11:16:21.538Z,95.79
2018-03-31T11:17:21.533Z,95.79
2018-03-31T11:18:21.521Z,94.93
2018-03-31T11:19:21.508Z,95.98
2018-03-31T11:20:21.502Z,94.56
2018-03-31T11:21:21.238Z,94.84
2018-03-31T11:22:21.477Z,95.03
2018-03-31T11:23:21.485Z,94.65
2018-03-31T11:24:21.473Z,95.03
2018-03-31T11:25:21.446Z,94.37
2018-03-31T11:26:21.441Z,93.99
2018-03-31T11:27:21.435Z,93.6
2018-03-31T11:28:21.423Z,93.56
2018-03-31T11:29:21.156Z,93.37
2018-03-31T11:30:21.402Z,92.99
2018-03-31T11:31:21.136Z,93.65
2018-03-31T11:32:21.462Z,93.65
2018-03-31T11:33:21.373Z,93.84
2018-03-31T11:34:21.370Z,93.94
2018-03-31T11:35:21.350Z,95.65
2018-03-31T11:36:21.342Z,95.94
2018-03-31T11:37:21.339Z,96.69
2018-03-31T11:38:21.326Z,97.45
2018-03-31T11:39:21.309Z,95.46
2018-03-31T11:40:21.300Z,94.98
2018-03-31T11:41:21.035Z,95.55
2018-03-31T11:42:21.299Z,96.69
2018-03-31T11:43:21.268Z,97.41
2018-03-31T11:44:21.258Z,97.5
2018-03-31T11:45:21.250Z,96.84
2018-03-31T11:46:21.248Z,95.79
2018-03-31T11:47:21.234Z,95.03
2018-03-31T11:48:21.223Z,94.74
2018-03-31T11:49:21.207Z,93.99
2018-03-31T11:50:21.202Z,94.46
2018-03-31T11:51:21.188Z,93.79
2018-03-31T11:52:21.184Z,93.32
2018-03-31T11:53:21.168Z,94.56
2018-03-31T11:54:21.159Z,95.7
2018-03-31T11:55:21.150Z,93.99
2018-03-31T11:56:21.146Z,93.04
2018-03-31T11:57:21.134Z,93.94
2018-03-31T11:58:20.867Z,94.56
2018-03-31T11:59:21.118Z,95.27
2018-03-31T12:00:21.101Z,93.27
2018-03-31T12:01:21.098Z,92.7
2018-03-31T12:02:21.083Z,92.61
2018-03-31T12:03:21.073Z,91.89
2018-03-31T12:04:21.069Z,92.22
2018-03-31T12:05:21.053Z,91.99
2018-03-31T12:06:21.044Z,92.37
2018-03-31T12:07:21.034Z,91.89
2018-03-31T12:08:21.028Z,91.99
2018-03-31T12:09:21.020Z,92.37
2018-03-31T12:10:21.007Z,91.75
2018-03-31T12:11:20.996Z,92.22
2018-03-31T12:12:20.992Z,92.8
2018-03-31T12:13:20.976Z,93.94
2018-03-31T12:14:20.968Z,94.7
2018-03-31T12:15:20.966Z,93.84
2018-03-31T12:16:20.949Z,92.13
2018-03-31T12:17:20.942Z,93.04
2018-03-31T12:18:20.936Z,94.22
2018-03-31T12:19:20.922Z,93.04
2018-03-31T12:20:20.911Z,92.08
2018-03-31T12:21:20.902Z,92.65
2018-03-31T12:22:20.894Z,93.13
2018-03-31T12:23:20.884Z,92.56
2018-03-31T12:24:20.877Z,92.18
2018-03-31T12:25:20.871Z,92.27
2018-03-31T12:26:20.860Z,91.89
2018-03-31T12:27:20.849Z,92.84
2018-03-31T12:28:20.842Z,94.18
2018-03-31T12:29:20.843Z,95.12
2018-03-31T12:30:20.825Z,94.93
2018-03-31T12:31:20.810Z,92.08
2018-03-31T12:32:20.807Z,91.08
2018-03-31T12:33:20.806Z,89.27
2018-03-31T12:34:20.791Z,89.08
2018-03-31T12:35:20.786Z,91.03
2018-03-31T12:36:20.771Z,91.13
2018-03-31T12:37:20.786Z,91.51
2018-03-31T12:38:20.750Z,91.03
2018-03-31T12:39:20.742Z,92.18
2018-03-31T12:40:20.480Z,90.84
2018-03-31T12:41:20.724Z,92.08
2018-03-31T12:42:20.716Z,92.94
2018-03-31T12:43:20.705Z,90.66
2018-03-31T12:44:20.698Z,91.13
2018-03-31T12:45:20.692Z,91.7
2018-03-31T12:46:20.679Z,92.36
2018-03-31T12:47:20.730Z,93.23
2018-03-31T12:48:20.661Z,90.84
2018-03-31T12:49:20.665Z,91.61
2018-03-31T12:50:20.644Z,90.28
2018-03-31T12:51:20.638Z,89.23
2018-03-31T12:52:20.754Z,89.89
2018-03-31T12:53:20.626Z,91.13
2018-03-31T12:54:20.608Z,91.42
2018-03-31T12:55:20.608Z,90.75